Terminal Aerodrome Forecast
Issued by NWS

Home | Current Version | Previous Version | Graphics & Text | Print | Product List | Glossary On
Versions: 1 2 3 4 5 6 7 8 9 10 11 12 13 14 15 16 17 18 19 20 21
108
FTUS43 KTOP 150249 AAA
TAFMHK
TAF AMD
KMHK 150249Z 1503/1524 04003KT P6SM OVC035
     FM150400 05003KT 6SM -FZRA BR OVC035
     FM150630 06003KT P6SM OVC035
     FM151000 08004KT 4SM -FZRA BR OVC015
      TEMPO 1513/1517 FZRA BR OVC008=

USA.gov is the U.S. government's official web portal to all federal, state and local government web resources and services.